Terminal Aerodrome Forecast
Issued by NWS

Home | Current Version | Previous Version | Text Only | Print | Product List | Glossary On
Versions: 1 2 3 4 5 6 7 8 9 10 11 12 13 14 15 16 17 18 19 20 21 22 23 24
000
FTUS43 KDLH 212300
TAFHYR
TAF
KHYR 212330Z 2200/2224 32009G15KT P6SM FEW040
     FM220130 34004KT P6SM FEW035
     FM220900 36003KT P6SM SCT035
      TEMPO 2209/2213 BKN035
     FM221600 35006KT P6SM FEW035=

USA.gov is the U.S. government's official web portal to all federal, state and local government web resources and services.